Time;durP1;ratioP1;P1;durP2;ratioP2;P2;SDS_P1;SDS_P2;PMS_P1;PMS_P2;Temp;Humidity;BMP_temperature;BMP_pressure;BME280_temperature;BME280_humidity;BME280_pressure;Samples;Min_cycle;Max_cycle;Signal;HPM_P1;HPM_P2
2024/04/02 00:00:34;;;;;;;1.08;0.93;;;6.40;99.90;;;;;;5065007;28;20040;-76
2024/04/02 00:03:00;;;;;;;0.65;0.65;;;6.40;99.90;;;;;;5059728;28;20498;-76
2024/04/02 00:05:26;;;;;;;2.72;1.45;;;6.50;99.90;;;;;;5085611;28;20032;-76
2024/04/02 00:07:52;;;;;;;0.40;0.40;;;6.50;99.90;;;;;;5082561;28;20092;-77
2024/04/02 00:10:17;;;;;;;0.68;0.68;;;6.50;99.90;;;;;;5066191;28;20040;-76
2024/04/02 00:12:44;;;;;;;0.60;0.60;;;6.50;99.90;;;;;;5063623;28;20429;-76
2024/04/02 00:15:10;;;;;;;0.57;0.57;;;6.50;99.90;;;;;;5060744;28;20044;-76
2024/04/02 00:17:36;;;;;;;1.25;1.20;;;6.70;99.90;;;;;;5063720;28;20036;-76
2024/04/02 00:20:05;;;;;;;0.82;0.82;;;6.90;99.90;;;;;;5082082;28;20044;-76
2024/04/02 00:22:31;;;;;;;0.50;0.50;;;6.50;99.90;;;;;;5077947;28;20044;-77
2024/04/02 00:24:56;;;;;;;1.75;1.30;;;6.50;99.90;;;;;;5061973;28;20150;-76
2024/04/02 00:27:22;;;;;;;0.60;0.60;;;6.50;99.90;;;;;;5083073;28;20047;-77
2024/04/02 00:29:48;;;;;;;0.60;0.60;;;6.50;99.90;;;;;;5087765;28;20502;-76
2024/04/02 00:32:13;;;;;;;0.50;0.50;;;6.50;99.90;;;;;;5078492;28;20047;-77
2024/04/02 00:34:45;;;;;;;0.40;0.40;;;6.50;99.90;;;;;;5057733;28;20033;-77
2024/04/02 00:37:11;;;;;;;0.43;0.43;;;6.60;99.90;;;;;;5067335;28;20039;-76
2024/04/02 00:39:37;;;;;;;2.95;1.65;;;6.60;99.90;;;;;;5068215;28;20097;-77
2024/04/02 00:42:03;;;;;;;0.50;0.50;;;6.50;99.90;;;;;;5080340;28;20047;-77
2024/04/02 00:44:29;;;;;;;0.60;0.60;;;6.50;99.90;;;;;;5087547;28;20093;-77
2024/04/02 00:46:55;;;;;;;0.40;0.40;;;6.70;99.90;;;;;;5050091;28;20048;-76
2024/04/02 00:49:21;;;;;;;0.82;0.82;;;6.50;99.90;;;;;;5064214;28;20056;-76
2024/04/02 00:51:47;;;;;;;1.23;1.15;;;6.50;99.90;;;;;;5084829;28;20054;-77
2024/04/02 00:54:13;;;;;;;0.85;0.82;;;6.50;99.90;;;;;;5080509;28;20130;-76
2024/04/02 00:56:41;;;;;;;0.60;0.60;;;6.60;99.90;;;;;;5084154;28;20032;-76
2024/04/02 00:59:07;;;;;;;0.65;0.65;;;7.50;99.90;;;;;;5085287;28;20111;-78
2024/04/02 01:01:32;;;;;;;0.45;0.45;;;7.20;99.90;;;;;;5070682;28;20139;-76
2024/04/02 01:03:59;;;;;;;0.73;0.73;;;7.10;99.90;;;;;;5068323;28;20044;-76
2024/04/02 01:06:25;;;;;;;0.70;0.70;;;7.60;99.90;;;;;;5081640;28;20040;-77
2024/04/02 01:08:51;;;;;;;;;;;7.00;99.90;;;;;;5078509;28;20064;-76
2024/04/02 01:11:17;;;;;;;0.73;0.73;;;6.70;99.90;;;;;;5083455;28;19959;-76
2024/04/02 01:13:43;;;;;;;0.50;0.50;;;7.00;99.90;;;;;;5081449;28;20405;-76
2024/04/02 01:16:11;;;;;;;1.40;1.30;;;6.60;99.90;;;;;;5088338;28;20036;-76
2024/04/02 01:18:37;;;;;;;9.23;0.98;;;6.60;99.90;;;;;;5063849;28;20524;-78
2024/04/02 01:21:03;;;;;;;0.50;0.50;;;6.60;99.90;;;;;;5086591;28;20040;-75
2024/04/02 01:23:29;;;;;;;;;;;6.60;99.90;;;;;;5078501;28;20040;-75
2024/04/02 01:25:54;;;;;;;0.70;0.70;;;6.60;99.90;;;;;;5084441;28;20335;-75
2024/04/02 01:28:20;;;;;;;0.70;0.70;;;6.60;99.90;;;;;;5085927;28;20040;-76
2024/04/02 01:30:46;;;;;;;0.63;0.57;;;6.60;99.90;;;;;;5060806;28;20036;-77
2024/04/02 01:33:14;;;;;;;1.60;1.60;;;6.60;99.90;;;;;;5090037;28;20367;-77
2024/04/02 01:35:40;;;;;;;0.68;0.68;;;6.80;99.90;;;;;;5083054;28;20036;-76
2024/04/02 01:38:06;;;;;;;0.47;0.47;;;6.60;99.90;;;;;;5087751;28;20040;-76
2024/04/02 01:40:31;;;;;;;0.80;0.80;;;6.60;99.90;;;;;;5091443;28;20043;-77
2024/04/02 01:42:57;;;;;;;0.80;0.80;;;6.50;99.90;;;;;;5087694;28;20083;-76
2024/04/02 01:45:23;;;;;;;0.43;0.43;;;6.50;99.90;;;;;;5088492;28;20617;-76
2024/04/02 01:47:48;;;;;;;0.40;0.40;;;6.50;99.90;;;;;;5082274;28;20043;-76
2024/04/02 01:50:14;;;;;;;0.88;0.88;;;6.40;99.90;;;;;;5069228;28;20055;-77
2024/04/02 01:52:40;;;;;;;0.70;0.70;;;6.50;99.90;;;;;;5083689;28;20043;-77
2024/04/02 01:55:05;;;;;;;0.50;0.50;;;6.50;99.90;;;;;;5087966;28;20048;-77
2024/04/02 01:57:31;;;;;;;0.70;0.70;;;6.50;99.90;;;;;;5064618;28;20068;-76
2024/04/02 01:59:57;;;;;;;0.70;0.70;;;6.90;99.90;;;;;;5054072;28;20118;-76
2024/04/02 02:02:22;;;;;;;0.60;0.60;;;6.50;99.90;;;;;;5070294;28;20047;-76
2024/04/02 02:04:48;;;;;;;0.93;0.85;;;6.80;99.90;;;;;;5073718;28;20043;-76
2024/04/02 02:07:13;;;;;;;1.13;1.13;;;6.50;99.90;;;;;;5083427;28;20044;-76
2024/04/02 02:09:39;;;;;;;0.75;0.75;;;6.40;99.90;;;;;;5047622;28;20040;-76
2024/04/02 02:12:05;;;;;;;0.30;0.30;;;6.40;99.90;;;;;;5089343;28;20100;-76
2024/04/02 02:14:32;;;;;;;0.88;0.88;;;6.40;99.90;;;;;;5070255;28;20032;-77
2024/04/02 02:16:58;;;;;;;1.17;1.08;;;6.30;99.90;;;;;;5088841;28;20047;-77
2024/04/02 02:19:24;;;;;;;1.15;1.15;;;6.30;99.90;;;;;;5086305;28;20040;-76
2024/04/02 02:21:49;;;;;;;1.65;1.60;;;6.30;99.90;;;;;;5069837;28;20040;-76
2024/04/02 02:24:15;;;;;;;0.95;0.90;;;6.30;99.90;;;;;;5085385;28;20040;-76
2024/04/02 02:26:41;;;;;;;0.98;0.98;;;6.20;99.90;;;;;;5087928;28;20040;-76
2024/04/02 02:29:06;;;;;;;0.57;0.57;;;6.20;99.90;;;;;;5085954;28;20035;-76
2024/04/02 02:31:35;;;;;;;0.82;0.82;;;6.20;99.90;;;;;;5085915;28;20068;-76
2024/04/02 02:34:02;;;;;;;0.50;0.50;;;6.20;99.90;;;;;;5068039;28;20044;-76
2024/04/02 02:36:28;;;;;;;0.45;0.45;;;6.20;99.90;;;;;;5085881;28;20232;-76
2024/04/02 02:38:53;;;;;;;0.63;0.63;;;6.60;99.90;;;;;;5087635;28;20127;-76
2024/04/02 02:41:19;;;;;;;0.60;0.60;;;6.20;99.90;;;;;;5070852;28;20040;-76
2024/04/02 02:43:45;;;;;;;1.02;1.02;;;6.20;99.90;;;;;;5085889;28;20032;-76
2024/04/02 02:46:10;;;;;;;0.70;0.70;;;6.20;99.90;;;;;;5087540;28;20040;-76
2024/04/02 02:48:36;;;;;;;1.63;1.55;;;6.20;99.90;;;;;;5089436;28;20420;-76
2024/04/02 02:51:02;;;;;;;1.17;0.85;;;6.20;99.90;;;;;;5067256;28;20083;-76
2024/04/02 02:53:27;;;;;;;1.20;1.13;;;6.20;99.90;;;;;;5089432;28;20047;-76
2024/04/02 02:55:54;;;;;;;1.17;1.13;;;6.20;99.90;;;;;;5087240;28;20101;-75
2024/04/02 02:58:20;;;;;;;0.90;0.90;;;6.20;99.90;;;;;;5071952;28;20543;-76
2024/04/02 03:00:46;;;;;;;0.70;0.70;;;6.20;99.90;;;;;;5070365;28;20082;-77
2024/04/02 03:03:12;;;;;;;0.60;0.60;;;6.20;99.90;;;;;;5055713;28;20055;-77
2024/04/02 03:05:37;;;;;;;1.88;1.75;;;6.10;99.90;;;;;;5072062;28;20047;-76
2024/04/02 03:08:03;;;;;;;0.57;0.57;;;6.10;99.90;;;;;;5087732;28;20051;-77
2024/04/02 03:10:29;;;;;;;0.50;0.50;;;6.10;99.90;;;;;;5070553;28;20489;-76
2024/04/02 03:12:55;;;;;;;1.38;0.98;;;6.20;99.90;;;;;;5079374;28;20041;-76
2024/04/02 03:15:21;;;;;;;1.13;1.02;;;6.50;99.90;;;;;;5079989;28;20033;-76
2024/04/02 03:17:46;;;;;;;0.50;0.50;;;6.20;99.90;;;;;;5083458;28;20469;-76
2024/04/02 03:20:12;;;;;;;1.05;1.02;;;6.30;99.90;;;;;;5070461;28;20452;-76
2024/04/02 03:22:38;;;;;;;0.47;0.47;;;6.40;99.90;;;;;;5084234;28;20040;-76
2024/04/02 03:25:04;;;;;;;1.52;1.10;;;6.40;99.90;;;;;;5087400;28;20162;-75
2024/04/02 03:27:30;;;;;;;;;;;6.60;99.90;;;;;;5087251;28;20161;-75
2024/04/02 03:29:55;;;;;;;0.80;0.80;;;6.60;99.90;;;;;;5065183;28;19948;-75
2024/04/02 03:32:21;;;;;;;0.77;0.77;;;6.60;99.90;;;;;;5086749;28;20036;-77
2024/04/02 03:34:47;;;;;;;0.50;0.50;;;6.70;99.90;;;;;;5085516;28;20060;-76
2024/04/02 03:37:12;;;;;;;0.47;0.47;;;6.70;99.90;;;;;;5070028;28;20074;-76
2024/04/02 03:39:38;;;;;;;0.50;0.50;;;6.80;99.90;;;;;;5084585;28;20482;-76
2024/04/02 03:42:04;;;;;;;1.15;0.90;;;6.80;99.90;;;;;;5086181;28;20078;-76
2024/04/02 03:44:29;;;;;;;0.77;0.77;;;6.80;99.90;;;;;;5047130;28;20082;-76
2024/04/02 03:46:56;;;;;;;0.75;0.75;;;6.90;99.90;;;;;;5085521;28;20090;-76
2024/04/02 03:49:22;;;;;;;0.55;0.55;;;7.10;99.90;;;;;;5065423;28;20076;-76
2024/04/02 03:51:48;;;;;;;0.60;0.60;;;7.10;99.90;;;;;;5088240;28;20079;-76
2024/04/02 03:54:15;;;;;;;;;;;6.80;99.90;;;;;;5063776;28;20024;-75
2024/04/02 03:56:40;;;;;;;1.15;1.13;;;6.80;99.90;;;;;;5080823;28;19985;-76
2024/04/02 03:59:06;;;;;;;0.60;0.60;;;6.80;99.90;;;;;;5086576;28;20580;-76
2024/04/02 04:01:31;;;;;;;0.65;0.65;;;7.30;99.90;;;;;;5085046;28;20070;-76
2024/04/02 04:03:57;;;;;;;0.82;0.82;;;7.10;99.90;;;;;;5069702;28;20044;-77
2024/04/02 04:06:23;;;;;;;0.98;0.98;;;6.80;99.90;;;;;;5084580;28;20144;-75
2024/04/02 04:08:49;;;;;;;;;;;6.80;99.90;;;;;;5080136;28;20052;-75
2024/04/02 04:11:15;;;;;;;0.60;0.60;;;6.90;99.90;;;;;;5061686;28;19916;-76
2024/04/02 04:13:41;;;;;;;0.88;0.80;;;6.80;99.90;;;;;;5086460;28;20071;-76
2024/04/02 04:16:07;;;;;;;0.50;0.50;;;6.80;99.90;;;;;;5084425;28;20036;-76
2024/04/02 04:18:32;;;;;;;;;;;6.80;99.90;;;;;;5084520;28;20581;-77
2024/04/02 04:21:00;;;;;;;0.50;0.50;;;7.10;99.90;;;;;;5083299;28;19955;-77
2024/04/02 04:23:26;;;;;;;0.50;0.50;;;7.20;99.90;;;;;;5086174;28;20047;-76
2024/04/02 04:26:00;;;;;;;0.77;0.77;;;6.70;99.90;;;;;;5066732;28;20409;-76
2024/04/02 04:28:27;;;;;;;0.68;0.68;;;6.70;99.90;;;;;;5066507;28;20485;-77
2024/04/02 04:30:53;;;;;;;0.65;0.65;;;6.70;99.90;;;;;;5084030;28;20036;-76
2024/04/02 04:33:18;;;;;;;;;;;6.60;99.90;;;;;;5082715;28;20075;-76
2024/04/02 04:35:45;;;;;;;0.40;0.40;;;6.60;99.90;;;;;;5064713;28;20372;-76
2024/04/02 04:38:10;;;;;;;0.75;0.75;;;6.60;99.90;;;;;;5065952;28;20046;-76
2024/04/02 04:40:36;;;;;;;0.50;0.50;;;6.60;99.90;;;;;;5086272;28;20115;-76
2024/04/02 04:43:01;;;;;;;0.70;0.70;;;6.60;99.90;;;;;;5083252;28;20040;-75
2024/04/02 04:45:27;;;;;;;1.75;1.65;;;6.60;99.90;;;;;;5083165;28;20404;-76
2024/04/02 04:47:53;;;;;;;1.35;1.25;;;6.60;99.90;;;;;;5081581;28;20048;-77
2024/04/02 04:50:19;;;;;;;1.35;1.35;;;7.40;99.90;;;;;;5067984;28;20044;-75
2024/04/02 04:52:45;;;;;;;2.63;1.20;;;7.00;99.90;;;;;;5068256;28;20417;-76
2024/04/02 04:55:10;;;;;;;0.60;0.60;;;6.60;99.90;;;;;;5076780;28;20162;-76
2024/04/02 04:57:36;;;;;;;0.73;0.73;;;6.50;99.90;;;;;;5085930;28;20032;-77
2024/04/02 05:00:01;;;;;;;0.60;0.60;;;6.60;99.90;;;;;;5085737;28;20140;-77
2024/04/02 05:02:27;;;;;;;1.05;1.02;;;6.60;99.90;;;;;;5084928;28;20129;-76
2024/04/02 05:04:53;;;;;;;2.28;1.13;;;6.50;99.90;;;;;;5064340;28;20453;-76
2024/04/02 05:07:23;;;;;;;1.02;1.02;;;7.30;99.90;;;;;;5084196;28;20089;-76
2024/04/02 05:09:51;;;;;;;0.70;0.70;;;6.50;99.90;;;;;;5088307;28;20044;-76
2024/04/02 05:12:17;;;;;;;1.42;1.33;;;6.50;99.90;;;;;;5088837;28;20036;-76
2024/04/02 05:14:43;;;;;;;0.50;0.50;;;6.60;99.90;;;;;;5087821;28;20067;-76
2024/04/02 05:17:09;;;;;;;1.40;1.30;;;7.30;99.90;;;;;;5085114;28;20059;-76
2024/04/02 05:19:34;;;;;;;0.60;0.60;;;6.60;99.90;;;;;;5086253;28;20558;-76
2024/04/02 05:22:00;;;;;;;0.50;0.50;;;6.90;99.90;;;;;;5087702;28;20074;-75
2024/04/02 05:24:25;;;;;;;4.18;1.40;;;6.50;99.90;;;;;;5087847;28;20040;-76
2024/04/02 05:26:51;;;;;;;0.85;0.85;;;6.70;99.90;;;;;;5065155;28;20044;-77
2024/04/02 05:29:17;;;;;;;0.50;0.50;;;6.60;99.90;;;;;;5088750;28;20499;-76
2024/04/02 05:31:43;;;;;;;0.85;0.85;;;6.60;99.90;;;;;;5065217;28;20387;-76
2024/04/02 05:34:09;;;;;;;0.55;0.55;;;7.40;99.90;;;;;;5083420;28;20112;-76
2024/04/02 05:36:35;;;;;;;2.03;1.83;;;6.60;99.90;;;;;;5088676;28;20448;-75
2024/04/02 05:39:01;;;;;;;0.60;0.60;;;6.60;99.90;;;;;;5088020;28;20040;-77
2024/04/02 05:41:26;;;;;;;0.75;0.75;;;7.30;99.90;;;;;;5071277;28;20044;-77
2024/04/02 05:43:52;;;;;;;0.50;0.50;;;6.60;99.90;;;;;;5072178;28;20066;-75
2024/04/02 05:46:17;;;;;;;0.60;0.60;;;6.60;99.90;;;;;;5088643;28;20054;-76
2024/04/02 05:48:46;;;;;;;0.60;0.60;;;6.80;99.90;;;;;;5086922;28;20539;-76
2024/04/02 05:51:12;;;;;;;0.65;0.65;;;6.60;99.90;;;;;;5088518;28;20060;-76
2024/04/02 05:53:38;;;;;;;0.90;0.90;;;6.60;99.90;;;;;;5085858;28;20131;-77
2024/04/02 05:56:05;;;;;;;0.60;0.60;;;6.70;99.90;;;;;;5084487;28;20045;-82
2024/04/02 05:58:31;;;;;;;3.20;1.15;;;6.70;99.90;;;;;;5086794;28;20486;-81
2024/04/02 06:01:04;;;;;;;;;;;6.70;99.90;;;;;;5086137;28;20067;-81
2024/04/02 06:03:30;;;;;;;1.40;1.33;;;6.70;99.90;;;;;;5088388;28;19919;-81
2024/04/02 06:05:56;;;;;;;0.60;0.60;;;6.70;99.90;;;;;;5085814;28;20041;-80
2024/04/02 06:08:21;;;;;;;0.60;0.60;;;6.70;99.90;;;;;;5085855;28;20055;-82
2024/04/02 06:10:47;;;;;;;0.73;0.73;;;7.90;99.90;;;;;;5087369;28;20051;-81
2024/04/02 06:13:13;;;;;;;0.60;0.60;;;6.90;99.90;;;;;;5083492;28;20123;-80
2024/04/02 06:15:38;;;;;;;0.60;0.60;;;6.90;99.90;;;;;;5065270;28;20115;-79
2024/04/02 06:18:05;;;;;;;0.75;0.75;;;7.00;99.90;;;;;;5080093;28;20489;-79
2024/04/02 06:20:31;;;;;;;0.55;0.55;;;7.00;99.90;;;;;;5084693;28;20405;-80
2024/04/02 06:22:56;;;;;;;0.65;0.65;;;7.10;99.90;;;;;;5083323;28;20040;-80
2024/04/02 06:25:22;;;;;;;1.00;1.00;;;7.20;99.90;;;;;;5083461;28;20219;-81
2024/04/02 06:27:48;;;;;;;0.68;0.68;;;7.20;99.90;;;;;;5084558;28;20048;-80
2024/04/02 06:30:14;;;;;;;0.60;0.60;;;7.30;99.90;;;;;;5074599;28;21776;-81
2024/04/02 06:32:39;;;;;;;0.50;0.50;;;7.30;99.90;;;;;;5085725;28;20056;-83
2024/04/02 06:35:05;;;;;;;1.95;1.10;;;7.40;99.90;;;;;;5090125;28;20055;-82
2024/04/02 06:37:31;;;;;;;1.20;1.15;;;7.50;99.90;;;;;;5090592;28;20073;-83
2024/04/02 06:39:57;;;;;;;2.80;0.82;;;7.60;99.90;;;;;;5090821;28;20041;-82
2024/04/02 06:42:23;;;;;;;3.70;3.38;;;7.80;99.90;;;;;;5097823;28;20409;-83
2024/04/02 06:44:49;;;;;;;;;;;7.70;99.90;;;;;;5098287;28;20047;-84
2024/04/02 06:47:15;;;;;;;0.95;0.95;;;7.80;99.90;;;;;;5083480;28;19924;-82
2024/04/02 06:49:40;;;;;;;0.88;0.82;;;7.90;99.90;;;;;;5068847;28;20062;-82
2024/04/02 06:52:06;;;;;;;0.70;0.70;;;7.90;99.90;;;;;;5088536;28;20067;-82
2024/04/02 06:54:32;;;;;;;0.40;0.40;;;8.00;99.90;;;;;;5072952;28;20444;-81
2024/04/02 06:56:58;;;;;;;1.05;1.05;;;8.10;99.90;;;;;;5086436;28;20038;-85
2024/04/02 06:59:23;;;;;;;0.43;0.43;;;8.10;99.90;;;;;;5089738;28;20036;-83
2024/04/02 07:01:49;;;;;;;1.33;1.23;;;8.20;99.90;;;;;;5069851;28;20056;-83
2024/04/02 07:04:15;;;;;;;1.48;1.38;;;8.30;99.90;;;;;;5071317;28;20044;-82
2024/04/02 07:06:42;;;;;;;0.90;0.90;;;8.40;99.90;;;;;;5088216;28;20029;-77
2024/04/02 07:09:08;;;;;;;0.47;0.47;;;8.50;99.90;;;;;;5056256;28;20055;-77
2024/04/02 07:11:34;;;;;;;0.60;0.60;;;8.60;99.90;;;;;;5090044;28;20044;-77
2024/04/02 07:14:01;;;;;;;0.73;0.73;;;8.60;99.90;;;;;;5086975;28;20079;-76
2024/04/02 07:16:27;;;;;;;0.75;0.75;;;8.60;99.90;;;;;;5087945;28;20032;-76
2024/04/02 07:18:53;;;;;;;0.65;0.65;;;8.70;99.90;;;;;;5087045;28;20028;-77
2024/04/02 07:21:19;;;;;;;0.60;0.60;;;8.80;99.90;;;;;;5086391;28;20058;-76
2024/04/02 07:23:44;;;;;;;1.33;1.25;;;8.90;99.90;;;;;;5087201;28;20036;-77
2024/04/02 07:26:10;;;;;;;1.67;1.30;;;9.00;99.90;;;;;;5089062;28;20075;-77
2024/04/02 07:28:36;;;;;;;0.68;0.68;;;9.10;99.90;;;;;;5088282;28;20096;-77
2024/04/02 07:31:01;;;;;;;1.27;1.17;;;9.20;99.90;;;;;;5068098;28;20040;-76
2024/04/02 07:33:27;;;;;;;0.77;0.77;;;9.20;99.90;;;;;;5086312;28;20092;-77
2024/04/02 07:35:56;;;;;;;0.40;0.40;;;9.30;99.90;;;;;;5088208;28;20126;-78
2024/04/02 07:38:22;;;;;;;1.02;0.77;;;9.50;99.90;;;;;;5070417;28;20046;-77
2024/04/02 07:40:47;;;;;;;0.50;0.50;;;9.50;99.90;;;;;;5088743;28;20032;-78
2024/04/02 07:43:13;;;;;;;2.40;1.33;;;9.70;99.90;;;;;;5094343;28;20118;-79
2024/04/02 07:45:40;;;;;;;0.30;0.30;;;9.80;99.90;;;;;;5087822;28;20454;-77
2024/04/02 07:48:07;;;;;;;0.43;0.43;;;10.00;99.90;;;;;;5082495;28;20055;-76
2024/04/02 07:50:37;;;;;;;0.93;0.93;;;10.10;99.90;;;;;;5067764;28;20040;-76
2024/04/02 07:53:03;;;;;;;0.70;0.70;;;10.20;99.90;;;;;;5085734;28;20046;-76
2024/04/02 07:55:28;;;;;;;0.60;0.60;;;10.50;99.90;;;;;;5066448;28;20435;-78
2024/04/02 07:57:54;;;;;;;0.50;0.50;;;10.40;99.90;;;;;;5070428;28;20073;-77
2024/04/02 08:00:20;;;;;;;1.90;1.58;;;10.40;99.90;;;;;;5087829;28;20127;-77
2024/04/02 08:02:46;;;;;;;0.57;0.57;;;10.50;99.90;;;;;;5085976;28;20039;-77
2024/04/02 08:05:13;;;;;;;;;;;10.50;99.90;;;;;;5087410;28;20481;-76
2024/04/02 08:07:39;;;;;;;0.45;0.45;;;10.60;99.90;;;;;;5090550;28;20400;-77
2024/04/02 08:10:06;;;;;;;0.63;0.63;;;10.60;99.90;;;;;;5070772;28;20040;-77
2024/04/02 08:12:31;;;;;;;0.40;0.40;;;10.70;99.90;;;;;;5069496;28;20048;-76
2024/04/02 08:14:57;;;;;;;0.98;0.70;;;10.70;99.90;;;;;;5089667;28;20042;-77
2024/04/02 08:17:23;;;;;;;2.55;2.35;;;10.70;99.90;;;;;;5092924;28;20043;-78
2024/04/02 08:19:48;;;;;;;0.68;0.57;;;10.70;99.90;;;;;;5081751;28;20074;-78
2024/04/02 08:22:16;;;;;;;0.82;0.82;;;10.70;99.90;;;;;;5083549;28;20490;-79
2024/04/02 08:24:41;;;;;;;0.70;0.70;;;10.70;99.90;;;;;;5088970;28;20028;-77
2024/04/02 08:27:07;;;;;;;0.75;0.75;;;10.70;99.90;;;;;;5087343;28;20062;-78
2024/04/02 08:29:34;;;;;;;;;;;10.80;99.90;;;;;;5069117;28;20162;-78
2024/04/02 08:31:59;;;;;;;0.40;0.40;;;10.80;99.90;;;;;;5087132;28;20050;-77
2024/04/02 08:34:25;;;;;;;0.50;0.50;;;10.70;99.90;;;;;;5086568;28;20050;-77
2024/04/02 08:36:51;;;;;;;3.83;2.15;;;10.80;99.90;;;;;;5087176;28;20052;-77
2024/04/02 08:39:17;;;;;;;0.40;0.40;;;10.90;99.90;;;;;;5088378;28;20032;-77
2024/04/02 08:41:42;;;;;;;0.55;0.55;;;11.00;99.90;;;;;;5085428;28;20529;-77
2024/04/02 08:44:08;;;;;;;0.88;0.88;;;11.10;99.90;;;;;;5085902;28;20402;-79
2024/04/02 08:46:35;;;;;;;0.40;0.40;;;11.10;99.90;;;;;;5086547;28;20132;-77
2024/04/02 08:49:02;;;;;;;0.65;0.65;;;;;;;;;;5086072;28;20043;-77
2024/04/02 08:51:30;;;;;;;1.58;0.70;;;;;;;;;;5070330;28;20044;-77
2024/04/02 08:53:56;;;;;;;;;;;;;;;;;;5087072;28;20448;-76
2024/04/02 08:56:22;;;;;;;0.60;0.60;;;;;;;;;;5089573;28;19978;-76
2024/04/02 08:58:48;;;;;;;;;;;;;;;;;;5089170;28;20124;-76
2024/04/02 09:01:15;;;;;;;0.40;0.40;;;;;;;;;;5086380;28;20002;-78
2024/04/02 09:03:41;;;;;;;0.98;0.65;;;;;;;;;;5086604;28;20066;-76
2024/04/02 09:06:08;;;;;;;3.00;1.05;;;;;;;;;;5067917;28;20047;-77
2024/04/02 09:08:46;;;;;;;2.15;2.05;;;;;;;;;;5086692;28;20581;-77
2024/04/02 09:11:13;;;;;;;2.22;1.65;;;;;;;;;;5086537;28;20066;-78
2024/04/02 09:13:40;;;;;;;0.40;0.40;;;;;;;;;;5087124;28;20127;-78
2024/04/02 09:16:06;;;;;;;;;;;;;;;;;;5085896;28;20040;-75
2024/04/02 09:18:35;;;;;;;0.40;0.40;;;;;;;;;;5087838;28;20289;-77
2024/04/02 09:21:01;;;;;;;1.02;0.98;;;;;;;;;;5086396;28;20174;-76
2024/04/02 09:23:28;;;;;;;0.40;0.40;;;;;;;;;;5086593;28;20674;-77
2024/04/02 09:25:55;;;;;;;0.88;0.88;;;;;;;;;;5086775;28;20055;-76
2024/04/02 09:28:21;;;;;;;2.78;0.38;;;;;;;;;;5087746;28;20067;-77
2024/04/02 09:30:47;;;;;;;0.60;0.60;;;;;;;;;;5086405;28;20047;-76
2024/04/02 09:33:13;;;;;;;;;;;;;;;;;;5087637;28;20046;-77
2024/04/02 09:35:54;;;;;;;0.57;0.57;;;;;;;;;;5088367;28;19916;-77
2024/04/02 09:38:21;;;;;;;0.63;0.63;;;;;;;;;;5086604;28;20047;-76
2024/04/02 09:40:48;;;;;;;0.20;0.20;;;;;;;;;;5069880;28;20044;-78
2024/04/02 09:43:15;;;;;;;1.15;0.65;;;;;;;;;;5088080;28;20039;-76
2024/04/02 09:45:43;;;;;;;1.05;0.75;;;;;;;;;;5086614;28;20048;-77
2024/04/02 09:48:10;;;;;;;1.30;0.60;;;;;;;;;;5088993;28;20123;-76
2024/04/02 09:50:37;;;;;;;0.73;0.70;;;;;;;;;;5068829;28;20417;-76
2024/04/02 09:53:04;;;;;;;1.33;0.60;;;13.10;99.90;;;;;;5087611;28;20317;-77
2024/04/02 09:55:33;;;;;;;0.50;0.50;;;13.10;99.90;;;;;;5089925;28;20660;-76
2024/04/02 09:58:00;;;;;;;2.45;1.00;;;13.20;99.90;;;;;;5072750;28;20056;-76
2024/04/02 10:00:28;;;;;;;0.65;0.60;;;13.10;99.90;;;;;;5072137;28;20535;-78
2024/04/02 10:02:54;;;;;;;0.28;0.28;;;13.10;99.90;;;;;;5090791;28;20409;-76
2024/04/02 10:05:23;;;;;;;1.08;1.08;;;13.00;99.90;;;;;;5057161;28;20036;-76
2024/04/02 10:07:51;;;;;;;1.63;1.52;;;12.90;99.90;;;;;;5074474;28;20043;-75
2024/04/02 10:10:17;;;;;;;0.28;0.28;;;12.90;99.90;;;;;;5089519;28;20082;-76
2024/04/02 10:12:53;;;;;;;0.35;0.35;;;12.90;99.90;;;;;;5089108;28;20076;-76
2024/04/02 10:15:19;;;;;;;0.38;0.38;;;13.00;99.90;;;;;;5088935;28;20043;-76
2024/04/02 10:17:44;;;;;;;;;;;12.90;99.90;;;;;;5090788;28;20038;-75
2024/04/02 10:20:28;;;;;;;2.53;0.57;;;12.80;99.90;;;;;;5091602;28;19920;-77
2024/04/02 10:22:58;;;;;;;0.50;0.50;;;12.70;99.90;;;;;;5092148;28;20051;-76
2024/04/02 10:25:25;;;;;;;1.85;1.15;;;12.50;99.90;;;;;;5092102;28;20036;-77
2024/04/02 10:27:57;;;;;;;0.25;0.25;;;12.50;99.90;;;;;;5091469;28;20047;-76
2024/04/02 10:30:27;;;;;;;0.57;0.57;;;12.50;99.90;;;;;;5055071;28;20040;-75
2024/04/02 10:32:56;;;;;;;0.32;0.32;;;12.50;99.90;;;;;;5089402;28;20512;-77
2024/04/02 10:35:25;;;;;;;0.43;0.43;;;12.60;99.90;;;;;;5086984;28;20040;-78
2024/04/02 10:37:53;;;;;;;0.30;0.30;;;12.60;99.90;;;;;;5088334;28;20043;-76
2024/04/02 10:40:19;;;;;;;0.82;0.60;;;12.80;99.90;;;;;;5088408;28;20501;-77
2024/04/02 10:42:50;;;;;;;0.55;0.55;;;12.90;99.90;;;;;;5088030;28;20497;-77
2024/04/02 10:45:17;;;;;;;1.85;1.75;;;13.10;99.90;;;;;;5090269;28;20055;-76
2024/04/02 10:47:52;;;;;;;1.02;1.02;;;13.20;99.90;;;;;;5089216;28;20044;-75
2024/04/02 10:50:21;;;;;;;0.75;0.75;;;13.20;99.90;;;;;;5089665;28;20044;-75
2024/04/02 10:52:47;;;;;;;1.05;1.05;;;13.00;99.90;;;;;;5090870;28;20047;-77
2024/04/02 10:55:13;;;;;;;0.55;0.55;;;12.70;99.90;;;;;;5092058;28;20032;-76
2024/04/02 10:57:40;;;;;;;0.38;0.38;;;12.40;99.90;;;;;;5073468;28;20038;-76
2024/04/02 11:00:18;;;;;;;0.40;0.40;;;12.20;99.90;;;;;;5088312;28;20036;-77
2024/04/02 11:02:45;;;;;;;0.77;0.77;;;12.30;99.90;;;;;;5055261;28;20137;-77
2024/04/02 11:05:16;;;;;;;0.52;0.52;;;12.30;99.90;;;;;;5088232;28;20044;-76
2024/04/02 11:07:43;;;;;;;0.60;0.60;;;12.40;99.90;;;;;;5082325;28;20135;-77
2024/04/02 11:10:10;;;;;;;6.72;3.15;;;12.30;99.90;;;;;;5080904;28;20115;-77
2024/04/02 11:12:35;;;;;;;;;;;12.30;99.90;;;;;;5073611;28;20039;-75
2024/04/02 11:15:01;;;;;;;0.63;0.63;;;12.40;99.90;;;;;;5090516;28;19916;-76
2024/04/02 11:17:27;;;;;;;;;;;12.50;99.90;;;;;;5086713;28;20051;-76
2024/04/02 11:19:53;;;;;;;0.50;0.50;;;12.60;99.90;;;;;;5088702;28;19920;-76
2024/04/02 11:25:11;;;;;;;1.88;0.65;;;12.50;99.90;;;;;;5087650;28;20036;-78
2024/04/02 11:27:43;;;;;;;0.77;0.77;;;12.50;99.90;;;;;;5088141;28;20028;-76
2024/04/02 11:30:10;;;;;;;0.60;0.60;;;12.60;99.90;;;;;;5070589;28;20040;-77
2024/04/02 11:32:36;;;;;;;1.10;0.93;;;12.70;99.90;;;;;;5087375;28;20035;-76
2024/04/02 11:35:04;;;;;;;1.23;1.23;;;12.80;99.90;;;;;;5088350;28;20040;-76
2024/04/02 11:37:31;;;;;;;0.55;0.47;;;12.90;99.90;;;;;;5086768;28;20819;-76
2024/04/02 11:39:58;;;;;;;0.40;0.40;;;12.90;99.90;;;;;;5072507;28;20038;-76
2024/04/02 11:42:24;;;;;;;0.60;0.60;;;13.00;99.90;;;;;;5081316;28;20090;-76
2024/04/02 11:44:55;;;;;;;0.30;0.30;;;13.10;99.90;;;;;;5086439;28;20624;-76
2024/04/02 11:47:21;;;;;;;0.55;0.55;;;13.10;99.90;;;;;;5068534;28;20039;-77
2024/04/02 11:49:47;;;;;;;0.90;0.73;;;13.00;99.90;;;;;;5085720;28;20821;-76
2024/04/02 11:52:12;;;;;;;1.27;1.17;;;13.00;99.90;;;;;;5087445;28;20096;-77
2024/04/02 11:54:39;;;;;;;0.40;0.40;;;12.90;99.90;;;;;;5074137;28;20029;-77
2024/04/02 12:00:19;;;;;;;1.27;1.17;;;12.70;99.90;;;;;;5061252;28;20132;-76
2024/04/02 12:02:46;;;;;;;1.00;0.50;;;12.70;99.90;;;;;;5072111;28;20264;-77
2024/04/02 12:05:14;;;;;;;0.40;0.40;;;12.80;99.90;;;;;;5087055;28;20043;-76
2024/04/02 12:07:40;;;;;;;0.88;0.85;;;13.00;99.90;;;;;;5085581;28;20489;-75
2024/04/02 12:10:08;;;;;;;0.40;0.40;;;13.10;99.90;;;;;;5088402;28;20087;-77
2024/04/02 12:12:34;;;;;;;0.30;0.30;;;13.20;99.90;;;;;;5088992;28;20042;-77
2024/04/02 12:15:03;;;;;;;0.30;0.30;;;13.20;99.90;;;;;;5087079;28;20068;-76
2024/04/02 12:17:29;;;;;;;0.60;0.60;;;13.30;99.90;;;;;;5085755;28;20158;-76
2024/04/02 12:19:55;;;;;;;;;;;13.40;99.90;;;;;;5089638;28;20035;-77
2024/04/02 12:22:22;;;;;;;0.30;0.30;;;13.50;99.90;;;;;;5086966;28;20381;-78
2024/04/02 12:24:48;;;;;;;0.43;0.43;;;13.70;99.90;;;;;;5081818;28;20073;-76
2024/04/02 12:27:13;;;;;;;0.35;0.35;;;13.70;99.90;;;;;;5083865;28;20509;-76
2024/04/02 12:29:39;;;;;;;0.35;0.35;;;13.90;99.90;;;;;;5084576;28;20040;-76
2024/04/02 12:32:07;;;;;;;0.30;0.30;;;14.00;99.90;;;;;;5086462;28;20039;-76
2024/04/02 12:34:34;;;;;;;0.40;0.40;;;13.90;99.90;;;;;;5086731;28;20067;-76
2024/04/02 12:37:00;;;;;;;0.45;0.45;;;13.90;99.90;;;;;;5087439;28;20039;-76
2024/04/02 12:39:27;;;;;;;0.20;0.20;;;13.80;99.90;;;;;;5088482;28;20552;-76
2024/04/02 12:41:52;;;;;;;0.40;0.40;;;13.70;99.90;;;;;;5069647;28;20127;-77
2024/04/02 12:44:18;;;;;;;0.45;0.45;;;13.70;99.90;;;;;;5087518;28;20036;-76
2024/04/02 12:46:45;;;;;;;0.88;0.77;;;13.70;99.90;;;;;;5085482;28;20465;-78
2024/04/02 12:49:12;;;;;;;0.57;0.57;;;13.80;99.90;;;;;;5087598;28;20040;-77
2024/04/02 12:51:40;;;;;;;0.40;0.40;;;13.80;99.90;;;;;;5086929;28;20055;-75
2024/04/02 12:54:06;;;;;;;1.38;1.27;;;13.80;99.90;;;;;;5070670;28;20048;-75
2024/04/02 12:56:32;;;;;;;;;;;14.00;99.90;;;;;;5085851;28;20039;-76
2024/04/02 12:58:58;;;;;;;0.30;0.30;;;14.30;99.90;;;;;;5085385;28;19926;-76
2024/04/02 13:01:24;;;;;;;0.45;0.45;;;14.50;99.90;;;;;;5089032;28;20032;-76
2024/04/02 13:03:51;;;;;;;0.30;0.30;;;14.40;99.90;;;;;;5085577;28;20047;-76
2024/04/02 13:06:17;;;;;;;0.57;0.57;;;14.20;99.90;;;;;;5086994;28;20181;-76
2024/04/02 13:08:47;;;;;;;0.28;0.28;;;14.00;99.90;;;;;;5069339;28;20126;-76